Time;durP1;ratioP1;P1;durP2;ratioP2;P2;SDS_P1;SDS_P2;PMS_P1;PMS_P2;Temp;Humidity;BMP_temperature;BMP_pressure;BME280_temperature;BME280_humidity;BME280_pressure;Samples;Min_cycle;Max_cycle;Signal;HPM_P1;HPM_P2
2021/04/28 18:43:29;;;;;;;4.05;1.63;;;;;;;21.77;24.55;100713.50;5071226;27;20397;-69
2021/04/28 18:45:55;;;;;;;3.13;1.60;;;;;;;19.04;28.88;100723.69;5068488;28;20738;-72
2021/04/28 18:48:20;;;;;;;3.60;1.67;;;;;;;17.01;32.69;100725.63;5073159;28;20074;-68
2021/04/28 18:50:46;;;;;;;5.32;1.70;;;;;;;15.02;37.61;100734.47;5067124;28;20020;-69
2021/04/28 18:53:12;;;;;;;5.10;1.80;;;;;;;14.43;38.84;100734.16;5084560;28;20190;-69
2021/04/28 18:55:38;;;;;;;3.70;1.67;;;;;;;13.68;40.56;100715.88;5061163;28;20032;-69
2021/04/28 18:58:04;;;;;;;5.45;1.48;;;;;;;13.47;41.63;100734.09;5084916;28;20111;-69
2021/04/28 19:00:29;;;;;;;7.13;1.77;;;;;;;13.26;42.08;100744.47;5066683;28;20032;-68
2021/04/28 19:02:55;;;;;;;9.15;3.50;;;;;;;13.06;42.83;100745.94;5060656;28;20453;-69
2021/04/28 19:05:21;;;;;;;4.95;2.22;;;;;;;12.65;44.26;100750.69;5066861;28;20039;-69
2021/04/28 19:07:47;;;;;;;5.22;1.90;;;;;;;12.63;44.28;100754.28;5064617;28;20052;-69
2021/04/28 19:10:13;;;;;;;9.75;4.20;;;;;;;12.51;44.30;100747.63;5065472;28;20067;-68
2021/04/28 19:12:41;;;;;;;12.50;4.85;;;;;;;12.33;45.36;100753.44;5064649;28;20045;-68
2021/04/28 19:15:11;;;;;;;16.17;7.65;;;;;;;12.36;45.54;100755.94;4871082;28;3132938;-69
2021/04/28 19:17:37;;;;;;;7.93;3.00;;;;;;;12.33;45.47;100756.06;4929371;28;20043;-69
2021/04/28 19:20:04;;;;;;;4.78;1.95;;;;;;;12.23;45.96;100759.84;4932216;28;20046;-69
2021/04/28 19:22:29;;;;;;;8.23;2.50;;;;;;;12.02;46.54;100764.78;4937336;28;20107;-69
2021/04/28 19:24:55;;;;;;;4.57;1.70;;;;;;;11.97;46.96;100763.19;4949945;28;20537;-69
2021/04/28 19:27:21;;;;;;;4.38;1.77;;;;;;;11.90;47.12;100759.84;4943904;28;20059;-69
2021/04/28 19:29:46;;;;;;;6.53;1.80;;;;;;;11.83;47.29;100763.56;4928752;28;20027;-68
2021/04/28 19:32:12;;;;;;;4.32;1.63;;;;;;;11.68;47.95;100760.41;4927124;28;20023;-69
2021/04/28 19:34:37;;;;;;;5.97;2.00;;;;;;;11.61;48.13;100768.47;4943941;28;20047;-69
2021/04/28 19:37:03;;;;;;;5.20;1.65;;;;;;;11.52;48.65;100764.31;4922331;28;20142;-69
2021/04/28 19:39:29;;;;;;;7.25;1.70;;;;;;;11.65;48.27;100765.72;4946987;28;20130;-68
2021/04/28 19:41:54;;;;;;;3.22;1.33;;;;;;;11.83;47.81;100776.63;4952328;28;20142;-69
2021/04/28 19:44:19;;;;;;;3.75;1.73;;;;;;;11.84;48.14;100780.97;4927959;28;20517;-69
2021/04/28 19:46:45;;;;;;;9.98;2.22;;;;;;;11.95;47.55;100774.53;4924632;28;20398;-68
2021/04/28 19:49:10;;;;;;;7.55;2.35;;;;;;;12.03;47.36;100782.19;4933694;28;20091;-69
2021/04/28 19:51:37;;;;;;;8.20;2.45;;;;;;;11.91;47.69;100774.66;4973095;28;20026;-68
2021/04/28 19:54:04;;;;;;;9.35;2.40;;;;;;;11.83;48.05;100774.03;4957341;28;20031;-68
2021/04/28 19:56:29;;;;;;;7.18;2.58;;;;;;;11.75;47.99;100773.31;4961679;28;20494;-68
2021/04/28 19:58:55;;;;;;;9.23;2.95;;;;;;;11.72;48.42;100789.13;4959958;28;20046;-68
2021/04/28 20:01:22;;;;;;;9.95;3.47;;;;;;;11.63;48.54;100783.22;4963216;28;20038;-69
2021/04/28 20:03:47;;;;;;;11.02;2.95;;;;;;;11.72;48.72;100789.13;4962347;28;20026;-69
2021/04/28 20:06:13;;;;;;;6.40;2.60;;;;;;;11.63;48.55;100777.97;4943506;28;20031;-68
2021/04/28 20:08:38;;;;;;;6.70;3.05;;;;;;;11.48;49.26;100788.84;4958694;28;20027;-69
2021/04/28 20:11:05;;;;;;;7.00;2.17;;;;;;;11.44;49.40;100789.78;4950046;28;20026;-69
2021/04/28 20:13:30;;;;;;;11.93;2.60;;;;;;;11.21;50.39;100794.75;4961696;28;20035;-68
2021/04/28 20:15:56;;;;;;;5.20;2.05;;;;;;;10.98;51.40;100795.25;4948314;28;20039;-68
2021/04/28 20:18:22;;;;;;;8.52;2.20;;;;;;;10.85;51.52;100792.09;4961093;28;20418;-68
2021/04/28 20:20:49;;;;;;;8.27;2.10;;;;;;;10.75;52.01;100798.41;4945210;28;20046;-68
2021/04/28 20:23:15;;;;;;;5.20;2.20;;;;;;;10.68;52.37;100797.66;4960246;28;20046;-69
2021/04/28 20:25:40;;;;;;;8.10;2.58;;;;;;;10.52;52.50;100797.13;4961148;28;20031;-69
2021/04/28 20:28:06;;;;;;;10.63;2.53;;;;;;;10.38;53.37;100807.00;4948170;28;20042;-68
2021/04/28 20:30:32;;;;;;;8.27;2.85;;;;;;;10.29;53.74;100807.16;4962690;28;20034;-69
2021/04/28 20:32:58;;;;;;;7.07;3.00;;;;;;;10.09;54.50;100797.13;4959566;28;20114;-68
2021/04/28 20:35:23;;;;;;;6.60;2.65;;;;;;;10.12;54.47;100795.28;4953386;28;20100;-68
2021/04/28 20:37:50;;;;;;;8.65;2.78;;;;;;;10.14;53.82;100798.75;4950899;28;20045;-69
2021/04/28 20:40:17;;;;;;;7.63;2.80;;;;;;;10.15;53.73;100804.81;4953822;28;20045;-68
2021/04/28 20:42:48;;;;;;;6.63;2.97;;;;;;;10.13;53.61;100790.91;4954532;28;20058;-68
2021/04/28 20:45:14;;;;;;;12.82;4.50;;;;;;;10.22;53.50;100795.09;4963433;28;20019;-69
2021/04/28 20:47:41;;;;;;;15.32;5.35;;;;;;;10.00;53.99;100794.66;4961965;28;20422;-69
2021/04/28 20:50:08;;;;;;;6.72;2.65;;;;;;;10.00;54.24;100798.13;4958630;28;20045;-69
2021/04/28 20:52:34;;;;;;;5.90;2.05;;;;;;;9.86;54.94;100792.31;4952944;28;20038;-69
2021/04/28 20:54:59;;;;;;;7.28;2.17;;;;;;;9.72;55.29;100794.28;4939591;28;20042;-69
2021/04/28 20:57:26;;;;;;;6.43;2.22;;;;;;;9.58;55.46;100798.03;4954903;28;20110;-68
2021/04/28 20:59:54;;;;;;;6.43;2.42;;;;;;;9.46;55.96;100793.00;4961730;28;20034;-69
2021/04/28 21:02:20;;;;;;;7.85;2.78;;;;;;;9.31;57.12;100803.66;4949724;28;20635;-69
2021/04/28 21:04:45;;;;;;;6.85;2.00;;;;;;;9.37;57.05;100803.56;4959270;28;20031;-69
2021/04/28 21:07:11;;;;;;;7.68;2.15;;;;;;;9.56;56.50;100805.00;4946875;28;20105;-69
2021/04/28 21:09:36;;;;;;;5.68;2.30;;;;;;;9.46;56.83;100798.22;4947676;28;20141;-68
2021/04/28 21:12:02;;;;;;;8.35;2.53;;;;;;;9.43;57.05;100807.81;4932407;28;20031;-70
2021/04/28 21:14:27;;;;;;;6.43;2.38;;;;;;;9.37;57.45;100798.34;4950859;28;20046;-69
2021/04/28 21:16:53;;;;;;;6.32;2.10;;;;;;;9.29;58.03;100802.84;4948731;28;20039;-68
2021/04/28 21:19:18;;;;;;;6.80;2.40;;;;;;;9.35;57.89;100800.13;4992357;28;20042;-68
2021/04/28 21:21:44;;;;;;;6.18;2.75;;;;;;;9.36;58.45;100801.84;4997069;28;20026;-68
2021/04/28 21:24:10;;;;;;;8.82;2.75;;;;;;;9.32;58.79;100806.25;4996810;28;20049;-69
2021/04/28 21:26:36;;;;;;;7.90;2.40;;;;;;;9.29;59.31;100801.09;5000235;28;20034;-68
2021/04/28 21:29:02;;;;;;;7.78;3.15;;;;;;;9.34;58.64;100783.66;4992232;28;20125;-69
2021/04/28 21:31:28;;;;;;;7.70;2.85;;;;;;;9.38;59.21;100794.00;5008743;28;20053;-68
2021/04/28 21:33:54;;;;;;;9.93;3.35;;;;;;;9.32;59.29;100789.75;4992968;28;20103;-68
2021/04/28 21:36:19;;;;;;;8.95;3.95;;;;;;;9.44;59.04;100784.34;4994597;28;20053;-68
2021/04/28 21:38:45;;;;;;;9.63;3.28;;;;;;;9.57;58.29;100798.88;4984495;28;20022;-69
2021/04/28 21:41:10;;;;;;;8.13;3.25;;;;;;;9.75;57.38;100789.91;5009883;28;20041;-68
2021/04/28 21:43:36;;;;;;;8.15;3.20;;;;;;;9.80;57.20;100797.66;4986034;28;20069;-69
2021/04/28 21:46:02;;;;;;;9.43;3.45;;;;;;;9.80;57.42;100797.66;4989460;28;20066;-68
2021/04/28 21:48:28;;;;;;;9.27;3.33;;;;;;;9.83;57.16;100798.47;4996840;28;20500;-69
2021/04/28 21:50:53;;;;;;;9.68;3.63;;;;;;;9.68;57.89;100800.44;4989356;28;20026;-68
2021/04/28 21:53:19;;;;;;;12.38;3.55;;;;;;;9.75;57.61;100799.47;5002368;28;20072;-68
2021/04/28 21:55:46;;;;;;;11.35;2.97;;;;;;;9.60;57.77;100804.06;5015557;28;20138;-68
2021/04/28 21:58:12;;;;;;;10.00;3.40;;;;;;;9.40;58.83;100795.72;5000683;28;20465;-68
2021/04/28 22:00:45;;;;;;;6.05;2.88;;;;;;;9.25;59.28;100801.16;4999933;28;20038;-69
2021/04/28 22:03:12;;;;;;;10.80;2.92;;;;;;;9.29;59.58;100810.66;4989727;28;20201;-69
2021/04/28 22:05:39;;;;;;;5.45;2.53;;;;;;;9.27;59.22;100800.25;5000522;28;20040;-68
2021/04/28 22:08:06;;;;;;;8.93;3.15;;;;;;;9.26;59.04;100800.28;4997065;28;20030;-68
2021/04/28 22:10:33;;;;;;;7.43;2.72;;;;;;;9.21;59.08;100804.69;5006076;28;20034;-69
2021/04/28 22:12:59;;;;;;;8.50;3.20;;;;;;;9.18;59.35;100812.59;4982931;28;20561;-69
2021/04/28 22:15:24;;;;;;;9.60;3.08;;;;;;;9.10;59.60;100808.34;4990625;28;20045;-69
2021/04/28 22:17:50;;;;;;;7.32;2.90;;;;;;;9.04;60.18;100816.25;4977904;28;20033;-69
2021/04/28 22:20:15;;;;;;;8.32;3.25;;;;;;;9.10;60.20;100813.53;5001257;28;20029;-69
2021/04/28 22:22:41;;;;;;;7.88;3.40;;;;;;;9.18;59.72;100796.94;5015036;28;20044;-69
2021/04/28 22:25:08;;;;;;;6.38;3.45;;;;;;;9.28;59.62;100801.13;5007538;28;20564;-69
2021/04/28 22:27:33;;;;;;;10.20;3.08;;;;;;;9.36;58.71;100801.84;5004901;28;20519;-69
2021/04/28 22:29:59;;;;;;;7.05;3.25;;;;;;;9.25;58.82;100798.56;4982003;28;20026;-69
2021/04/28 22:32:25;;;;;;;10.43;3.50;;;;;;;9.15;59.27;100802.19;4995126;28;20060;-68
2021/04/28 22:34:50;;;;;;;8.70;3.80;;;;;;;9.03;59.88;100798.91;4991921;28;20599;-70
2021/04/28 22:37:15;;;;;;;8.82;2.70;;;;;;;8.98;59.43;100799.84;5002029;28;20076;-68
2021/04/28 22:39:41;;;;;;;9.75;3.33;;;;;;;8.96;59.35;100802.47;4988875;28;20136;-68
2021/04/28 22:42:06;;;;;;;9.07;3.20;;;;;;;8.92;59.41;100800.81;4986146;28;20070;-69
2021/04/28 22:44:32;;;;;;;11.00;3.65;;;;;;;9.06;59.29;100793.63;4988548;28;20030;-68
2021/04/28 22:46:58;;;;;;;7.03;3.28;;;;;;;8.89;60.35;100800.84;5001421;28;20029;-68
2021/04/28 22:49:23;;;;;;;7.57;3.08;;;;;;;8.87;60.10;100796.50;4989415;28;20030;-68
2021/04/28 22:51:49;;;;;;;8.10;3.33;;;;;;;8.89;59.82;100800.84;4984213;28;20026;-69
2021/04/28 22:54:15;;;;;;;9.27;3.75;;;;;;;8.91;59.73;100799.06;4985530;28;20026;-68
2021/04/28 22:56:41;;;;;;;7.72;3.30;;;;;;;9.03;59.20;100806.72;5005315;28;20384;-69
2021/04/28 22:59:07;;;;;;;13.23;3.72;;;;;;;8.75;59.89;100798.41;4996593;28;20018;-69
2021/04/28 23:01:33;;;;;;;8.30;3.72;;;;;;;8.67;60.25;100792.47;5007102;28;20061;-68
2021/04/28 23:03:58;;;;;;;8.95;3.42;;;;;;;8.65;60.53;100798.56;5010782;28;20074;-69
2021/04/28 23:06:24;;;;;;;13.73;4.07;;;;;;;8.41;61.04;100784.97;4998652;28;20057;-68
2021/04/28 23:08:49;;;;;;;9.38;3.40;;;;;;;8.46;61.13;100801.38;5002571;28;20037;-68
2021/04/28 23:11:15;;;;;;;11.45;3.70;;;;;;;8.44;61.22;100803.16;4999141;28;20045;-68
2021/04/28 23:13:40;;;;;;;12.75;3.30;;;;;;;8.33;61.36;100807.59;4985187;28;20125;-69
2021/04/28 23:16:06;;;;;;;8.63;3.20;;;;;;;8.53;61.45;100810.84;5007389;28;20037;-69
2021/04/28 23:18:32;;;;;;;8.40;3.45;;;;;;;8.53;61.12;100818.66;4988971;28;20038;-68
2021/04/28 23:20:57;;;;;;;10.65;3.70;;;;;;;8.55;61.19;100811.69;5002371;28;20033;-68
2021/04/28 23:23:23;;;;;;;9.73;3.53;;;;;;;8.52;61.42;100808.28;5002019;28;20156;-68
2021/04/28 23:25:48;;;;;;;7.80;3.58;;;;;;;8.33;62.04;100810.22;4996617;28;20108;-69
2021/04/28 23:28:14;;;;;;;8.05;3.35;;;;;;;8.28;62.33;100802.44;4944757;28;20485;-69
2021/04/28 23:30:39;;;;;;;9.93;3.45;;;;;;;8.34;62.17;100809.31;4992929;28;20068;-68
2021/04/28 23:33:05;;;;;;;8.52;3.88;;;;;;;8.21;62.61;100810.34;4990160;28;20022;-68
2021/04/28 23:35:30;;;;;;;8.98;3.83;;;;;;;8.12;63.08;100821.72;5015807;28;20029;-68
2021/04/28 23:37:56;;;;;;;10.63;3.55;;;;;;;8.15;62.99;100816.47;4992211;28;20034;-68
2021/04/28 23:40:21;;;;;;;10.15;3.70;;;;;;;8.17;62.35;100811.28;4998116;28;20090;-68
2021/04/28 23:42:47;;;;;;;11.73;4.10;;;;;;;8.11;62.82;100809.59;5014276;28;20041;-68
2021/04/28 23:45:13;;;;;;;10.85;3.55;;;;;;;8.18;62.82;100820.78;5003101;28;20061;-68
2021/04/28 23:47:38;;;;;;;10.85;3.53;;;;;;;8.15;62.40;100810.41;5005288;28;20045;-68
2021/04/28 23:50:05;;;;;;;9.45;3.63;;;;;;;8.15;62.56;100811.25;5019235;28;20400;-68
2021/04/28 23:52:30;;;;;;;8.70;3.42;;;;;;;8.10;62.41;100817.41;5019326;28;20030;-69
2021/04/28 23:54:56;;;;;;;7.13;3.50;;;;;;;8.05;62.49;100810.50;5019956;28;20433;-68
2021/04/28 23:57:21;;;;;;;9.52;4.40;;;;;;;7.96;62.40;100812.38;5024597;28;20456;-68
2021/04/28 23:59:47;;;;;;;7.00;3.40;;;;;;;7.97;62.61;100812.34;4995823;28;20026;-69
